createdAt,value
2019-01-25T00:00:11.582Z,79.13
2019-01-25T00:05:07.874Z,86.23
2019-01-25T00:10:07.102Z,83.93
2019-01-25T00:15:09.047Z,65.47
2019-01-25T00:20:07.690Z,86.77
2019-01-25T00:25:04.276Z,89.93
2019-01-25T00:30:00.224Z,67.73
2019-01-25T00:34:56.107Z,87.53
2019-01-25T00:39:51.993Z,63.77
2019-01-25T00:44:48.600Z,64.10
2019-01-25T00:49:44.845Z,82.10
2019-01-25T00:54:40.746Z,63.90
2019-01-25T00:59:36.632Z,16.10
2019-01-25T01:04:32.652Z,76.20
2019-01-25T01:09:28.549Z,76.30
2019-01-25T01:14:25.968Z,77.87
2019-01-25T01:19:22.016Z,82.70
2019-01-25T01:24:17.922Z,84.23
2019-01-25T01:29:13.837Z,88.57
2019-01-25T01:34:09.733Z,89.07
2019-01-25T01:39:06.035Z,81.47
2019-01-25T01:44:11.406Z,84.37
2019-01-25T01:49:07.309Z,77.93
2019-01-25T01:54:03.308Z,81.40
2019-01-25T01:58:59.200Z,85.67
2019-01-25T02:03:55.102Z,81.13
2019-01-25T02:08:50.998Z,75.23
2019-01-25T02:13:46.902Z,84.57
2019-01-25T02:18:42.795Z,78.63
2019-01-25T02:23:38.685Z,75.83
2019-01-25T02:28:34.577Z,84.43
2019-01-25T02:33:30.461Z,84.43
2019-01-25T02:38:26.355Z,77.93
2019-01-25T02:43:22.245Z,88.07
2019-01-25T02:48:18.114Z,83.60
2019-01-25T02:53:14.013Z,81.47
2019-01-25T02:58:09.909Z,92.17
2019-01-25T03:03:05.796Z,73.77
2019-01-25T03:08:01.913Z,88.07
2019-01-25T03:12:57.809Z,85.87
2019-01-25T03:17:53.808Z,80.00
2019-01-25T03:22:49.820Z,69.73
2019-01-25T03:27:45.804Z,81.60
2019-01-25T03:32:41.703Z,77.97
2019-01-25T03:37:37.607Z,80.97
2019-01-25T03:42:33.497Z,81.30
2019-01-25T03:47:29.397Z,83.00
2019-01-25T03:52:25.282Z,77.53
2019-01-25T03:57:21.199Z,76.40
2019-01-25T04:02:17.212Z,82.43
2019-01-25T04:07:13.234Z,79.63
2019-01-25T04:12:09.158Z,81.30
2019-01-25T04:17:05.253Z,66.80
2019-01-25T04:22:01.150Z,75.60
2019-01-25T04:26:57.144Z,79.50
2019-01-25T04:31:53.232Z,75.27
2019-01-25T04:36:49.330Z,79.57
2019-01-25T04:41:45.252Z,80.10
2019-01-25T04:46:41.147Z,72.30
2019-01-25T04:51:37.055Z,80.37
2019-01-25T04:56:36.008Z,70.87
2019-01-25T05:01:32.397Z,74.60
2019-01-25T05:06:28.298Z,71.67
2019-01-25T05:11:24.315Z,68.80
2019-01-25T05:16:20.236Z,66.23
2019-01-25T05:21:41.452Z,76.17
2019-01-25T05:26:37.376Z,74.97
2019-01-25T05:31:33.268Z,70.40
2019-01-25T05:36:29.165Z,76.07
2019-01-25T05:41:28.606Z,69.60
2019-01-25T05:46:22.867Z,80.33
2019-01-25T05:51:18.770Z,60.83
2019-01-25T05:56:14.668Z,68.60
2019-01-25T06:01:10.553Z,59.20
2019-01-25T06:06:06.927Z,68.33
2019-01-25T06:11:05.774Z,65.97
2019-01-25T06:16:01.921Z,67.13
2019-01-25T06:20:57.997Z,71.13
2019-01-25T06:25:55.794Z,74.77
2019-01-25T06:30:52.190Z,83.30
2019-01-25T06:35:48.089Z,63.93
2019-01-25T06:40:44.000Z,67.40
2019-01-25T06:45:39.995Z,70.10
2019-01-25T06:50:35.910Z,65.00
2019-01-25T06:55:31.803Z,69.23
2019-01-25T07:00:46.294Z,64.77
2019-01-25T07:05:42.192Z,68.40
2019-01-25T07:10:38.243Z,66.37
2019-01-25T07:15:34.145Z,56.93
2019-01-25T07:20:30.034Z,74.83
2019-01-25T07:25:26.173Z,64.70
2019-01-25T07:30:22.183Z,66.40
2019-01-25T07:35:18.091Z,68.00
2019-01-25T07:40:13.975Z,64.20
2019-01-25T07:45:11.475Z,76.47
2019-01-25T07:50:09.380Z,69.00
2019-01-25T07:55:09.550Z,64.83
2019-01-25T08:00:12.238Z,69.00
2019-01-25T08:05:11.014Z,53.37
2019-01-25T08:10:21.535Z,75.53
2019-01-25T08:15:19.854Z,59.00
2019-01-25T08:20:15.856Z,61.90
2019-01-25T08:25:11.961Z,92.17
2019-01-25T08:30:11.339Z,88.23
2019-01-25T08:35:08.934Z,70.50
2019-01-25T08:40:08.351Z,60.13
2019-01-25T08:45:08.149Z,58.67
2019-01-25T08:50:07.907Z,61.73
2019-01-25T08:55:04.132Z,55.63
2019-01-25T09:00:03.441Z,65.47
2019-01-25T09:04:59.343Z,59.90
2019-01-25T09:09:57.961Z,61.00
2019-01-25T09:14:54.660Z,59.30
2019-01-25T09:19:51.981Z,60.70
2019-01-25T09:24:49.371Z,57.10
2019-01-25T09:29:45.274Z,58.17
2019-01-25T09:34:42.023Z,53.73
2019-01-25T09:39:37.928Z,64.50
2019-01-25T09:44:39.573Z,52.27
2019-01-25T09:49:37.304Z,58.03
2019-01-25T09:54:34.436Z,72.73
2019-01-25T09:59:31.697Z,61.37
2019-01-25T10:04:28.448Z,54.13
2019-01-25T10:09:25.409Z,60.77
2019-01-25T10:14:23.741Z,73.33
2019-01-25T10:19:19.739Z,67.37
2019-01-25T10:24:15.636Z,70.47
2019-01-25T10:29:12.044Z,61.70
2019-01-25T10:34:08.143Z,63.37
2019-01-25T10:39:05.837Z,68.63
2019-01-25T10:44:05.460Z,56.37
2019-01-25T10:49:01.461Z,63.73
2019-01-25T10:53:57.387Z,67.63
2019-01-25T10:58:53.294Z,69.37
2019-01-25T11:03:49.185Z,67.67
2019-01-25T11:08:45.238Z,68.03
2019-01-25T11:13:41.138Z,58.33
2019-01-25T11:18:37.162Z,75.70
2019-01-25T11:23:33.073Z,56.43
2019-01-25T11:28:28.966Z,69.50
2019-01-25T11:33:24.862Z,71.63
2019-01-25T11:38:20.760Z,62.70
2019-01-25T11:43:16.655Z,65.63
2019-01-25T11:48:12.910Z,71.00
2019-01-25T11:53:08.829Z,68.90
2019-01-25T11:58:04.900Z,61.67
2019-01-25T12:03:00.802Z,75.40
2019-01-25T12:07:56.737Z,61.63
2019-01-25T12:12:52.759Z,72.53
2019-01-25T12:17:48.782Z,74.20
2019-01-25T12:22:44.669Z,71.03
2019-01-25T12:27:40.571Z,58.13
2019-01-25T12:32:36.503Z,52.10
2019-01-25T12:37:34.476Z,55.17
2019-01-25T12:42:30.623Z,63.40
2019-01-25T12:47:26.525Z,50.60
2019-01-25T12:52:22.429Z,42.27
2019-01-25T12:57:18.325Z,48.17
2019-01-25T13:02:14.218Z,13.40
2019-01-25T13:07:10.241Z,65.20
2019-01-25T13:12:06.172Z,39.70
2019-01-25T13:17:02.067Z,33.53
2019-01-25T13:21:58.019Z,44.80
2019-01-25T13:26:53.886Z,59.17
2019-01-25T13:31:49.883Z,68.47
2019-01-25T13:36:46.076Z,59.47
2019-01-25T13:41:42.178Z,74.07
2019-01-25T13:46:39.228Z,67.77
2019-01-25T13:51:35.327Z,64.73
2019-01-25T13:56:31.237Z,77.20
2019-01-25T14:01:34.366Z,74.07
2019-01-25T14:06:25.178Z,68.67
2019-01-25T14:11:21.905Z,66.07
2019-01-25T14:16:17.923Z,71.90
2019-01-25T14:21:13.839Z,67.53
2019-01-25T14:26:09.835Z,81.03
2019-01-25T14:31:05.750Z,80.97
2019-01-25T14:36:01.641Z,77.70
2019-01-25T14:40:57.532Z,73.13
2019-01-25T14:45:57.405Z,75.53
2019-01-25T14:50:53.375Z,83.17
2019-01-25T14:55:49.307Z,85.77
2019-01-25T15:00:45.201Z,87.40
2019-01-25T15:05:41.094Z,89.00
2019-01-25T15:10:37.025Z,97.90
2019-01-25T15:15:33.122Z,88.83
2019-01-25T15:20:29.026Z,93.37
2019-01-25T15:25:25.202Z,94.20
2019-01-25T15:30:27.019Z,92.77
2019-01-25T15:35:23.870Z,74.77
2019-01-25T15:40:20.797Z,86.27
2019-01-25T15:45:18.396Z,97.40
2019-01-25T15:50:20.306Z,90.23
2019-01-25T15:55:18.571Z,87.77
2019-01-25T16:00:41.627Z,89.00
2019-01-25T16:05:37.897Z,81.77
2019-01-25T16:10:33.960Z,78.07
2019-01-25T16:15:30.069Z,87.17
2019-01-25T16:20:26.094Z,94.93
2019-01-25T16:25:24.685Z,68.17
2019-01-25T16:30:25.832Z,72.47
2019-01-25T16:35:21.907Z,76.50
2019-01-25T16:40:20.514Z,81.20
2019-01-25T16:45:22.398Z,85.30
2019-01-25T16:50:23.645Z,105.10
2019-01-25T16:55:16.621Z,83.70
2019-01-25T17:00:28.667Z,76.20
2019-01-25T17:05:25.109Z,78.83
2019-01-25T17:10:21.278Z,86.90
2019-01-25T17:15:17.392Z,93.87
2019-01-25T17:20:21.453Z,81.83
2019-01-25T17:25:17.298Z,89.00
2019-01-25T17:30:31.272Z,86.47
2019-01-25T17:35:27.558Z,86.27
2019-01-25T17:40:32.728Z,92.93
2019-01-25T17:45:29.282Z,87.53
2019-01-25T17:50:25.305Z,70.23
2019-01-25T17:55:21.354Z,74.47
2019-01-25T18:00:27.652Z,80.90
2019-01-25T18:05:23.667Z,88.47
2019-01-25T18:10:21.954Z,76.57
2019-01-25T18:15:18.787Z,72.70
2019-01-25T18:20:16.570Z,89.77
2019-01-25T18:25:19.345Z,84.33
2019-01-25T18:30:31.155Z,86.27
2019-01-25T18:35:27.157Z,70.63
2019-01-25T18:40:23.086Z,82.10
2019-01-25T18:45:19.085Z,69.60
2019-01-25T18:50:15.203Z,65.33
2019-01-25T18:55:14.329Z,65.17
2019-01-25T19:00:13.733Z,55.73
2019-01-25T19:05:09.750Z,60.40
2019-01-25T19:10:20.604Z,58.50
2019-01-25T19:15:19.772Z,53.90
2019-01-25T19:20:16.101Z,55.77
2019-01-25T19:25:12.130Z,53.83
2019-01-25T19:30:20.577Z,42.57
2019-01-25T19:35:16.806Z,54.80
2019-01-25T19:40:18.835Z,64.47
2019-01-25T19:45:15.557Z,54.17
2019-01-25T19:50:14.997Z,58.47
2019-01-25T19:55:14.121Z,67.63
2019-01-25T20:00:19.054Z,62.03
2019-01-25T20:05:18.686Z,49.10
2019-01-25T20:10:15.441Z,62.10
2019-01-25T20:15:19.566Z,45.37
2019-01-25T20:20:17.819Z,52.17
2019-01-25T20:25:14.949Z,56.80
2019-01-25T20:30:14.975Z,53.67
2019-01-25T20:35:14.395Z,58.80
2019-01-25T20:40:13.092Z,40.57
2019-01-25T20:45:12.964Z,49.00
2019-01-25T20:50:12.276Z,45.63
2019-01-25T20:55:14.531Z,50.47
2019-01-25T21:00:14.164Z,46.93
2019-01-25T21:05:10.064Z,47.30
2019-01-25T21:10:09.403Z,46.40
2019-01-25T21:15:08.818Z,54.07
2019-01-25T21:20:11.027Z,46.83
2019-01-25T21:25:07.137Z,44.20
2019-01-25T21:30:09.819Z,39.17
2019-01-25T21:35:07.781Z,40.07
2019-01-25T21:40:08.609Z,37.07
2019-01-25T21:45:09.478Z,32.63
2019-01-25T21:50:09.090Z,36.50
2019-01-25T21:55:08.312Z,37.40
2019-01-25T22:00:14.023Z,30.77
2019-01-25T22:05:10.331Z,31.93
2019-01-25T22:10:18.029Z,36.40
2019-01-25T22:15:15.946Z,35.30
2019-01-25T22:20:17.452Z,42.50
2019-01-25T22:25:13.896Z,32.53
2019-01-25T22:30:16.011Z,36.40
2019-01-25T22:35:12.011Z,32.00
2019-01-25T22:40:17.135Z,36.40
2019-01-25T22:45:16.219Z,25.10
2019-01-25T22:50:20.449Z,26.73
2019-01-25T22:55:18.059Z,22.53
2019-01-25T23:00:22.542Z,28.00
2019-01-25T23:05:33.816Z,23.43
2019-01-25T23:10:29.789Z,18.80
2019-01-25T23:15:25.708Z,19.67
2019-01-25T23:20:21.725Z,31.03
2019-01-25T23:25:17.641Z,22.00
2019-01-25T23:30:14.122Z,19.13
2019-01-25T23:35:10.124Z,20.77
2019-01-25T23:40:07.554Z,19.40
2019-01-25T23:45:05.607Z,18.90
2019-01-25T23:50:02.690Z,17.90
2019-01-25T23:54:58.587Z,15.50
2019-01-25T23:59:54.510Z,19.00
